createdAt,value
2023-02-19T00:00:14.250Z,8.60
2023-02-19T00:02:41.663Z,8.60
2023-02-19T00:05:08.824Z,8.60
2023-02-19T00:07:36.069Z,8.60
2023-02-19T00:10:03.216Z,8.60
2023-02-19T00:12:30.353Z,8.60
2023-02-19T00:14:58.467Z,8.60
2023-02-19T00:17:25.607Z,8.50
2023-02-19T00:19:54.105Z,8.50
2023-02-19T00:22:23.621Z,8.50
2023-02-19T00:24:50.865Z,8.40
2023-02-19T00:27:18.043Z,8.40
2023-02-19T00:29:45.199Z,8.30
2023-02-19T00:32:12.668Z,8.20
2023-02-19T00:34:40.052Z,8.20
2023-02-19T00:37:07.573Z,8.10
2023-02-19T00:39:34.815Z,8.00
2023-02-19T00:42:02.106Z,8.00
2023-02-19T00:44:29.291Z,7.90
2023-02-19T00:46:56.433Z,7.90
2023-02-19T00:49:26.995Z,7.90
2023-02-19T00:51:57.170Z,7.80
2023-02-19T00:54:27.846Z,7.80
2023-02-19T00:56:54.993Z,7.70
2023-02-19T00:59:22.153Z,7.70
2023-02-19T01:01:49.819Z,7.70
2023-02-19T01:04:17.726Z,7.70
2023-02-19T01:06:44.942Z,7.70
2023-02-19T01:09:12.060Z,7.70
2023-02-19T01:11:39.469Z,7.70
2023-02-19T01:14:06.670Z,7.70
2023-02-19T01:16:34.580Z,7.70
2023-02-19T01:19:01.920Z,7.70
2023-02-19T01:21:29.843Z,7.60
2023-02-19T01:23:57.589Z,7.60
2023-02-19T01:26:29.570Z,7.70
2023-02-19T01:28:57.282Z,7.60
2023-02-19T01:31:25.097Z,7.60
2023-02-19T01:34:00.860Z,7.60
2023-02-19T01:36:28.543Z,7.70
2023-02-19T01:38:57.396Z,7.70
2023-02-19T01:41:25.651Z,7.70
2023-02-19T01:44:04.453Z,7.70
2023-02-19T01:46:33.052Z,7.70
2023-02-19T01:49:08.034Z,7.60
2023-02-19T01:51:36.980Z,7.60
2023-02-19T01:54:06.125Z,7.60
2023-02-19T01:56:34.183Z,7.70
2023-02-19T01:59:01.849Z,7.60
2023-02-19T02:01:44.360Z,7.60
2023-02-19T02:04:12.361Z,7.60
2023-02-19T02:06:50.536Z,7.50
2023-02-19T02:09:39.430Z,7.40
2023-02-19T02:12:06.805Z,7.30
2023-02-19T02:14:36.613Z,7.30
2023-02-19T02:17:29.475Z,7.30
2023-02-19T02:20:15.792Z,7.40
2023-02-19T02:23:23.866Z,7.50
2023-02-19T02:26:12.667Z,7.50
2023-02-19T02:29:17.053Z,7.40
2023-02-19T02:31:57.375Z,7.50
2023-02-19T02:34:36.912Z,7.40
2023-02-19T02:37:04.223Z,7.40
2023-02-19T02:39:34.350Z,7.30
2023-02-19T02:42:20.560Z,7.40
2023-02-19T02:45:16.838Z,7.40
2023-02-19T02:47:56.064Z,7.30
2023-02-19T02:50:32.568Z,7.30
2023-02-19T02:53:21.991Z,7.40
2023-02-19T02:55:51.828Z,7.30
2023-02-19T02:58:19.041Z,7.30
2023-02-19T03:01:09.485Z,7.30
2023-02-19T03:03:37.317Z,7.30
2023-02-19T03:06:05.934Z,7.30
2023-02-19T03:09:00.225Z,7.30
2023-02-19T03:11:46.237Z,7.30
2023-02-19T03:14:50.534Z,7.30
2023-02-19T03:17:43.062Z,7.30
2023-02-19T03:20:13.923Z,7.20
2023-02-19T03:22:43.320Z,7.20
2023-02-19T03:25:38.393Z,7.20
2023-02-19T03:28:08.315Z,7.30
2023-02-19T03:30:49.454Z,7.20
2023-02-19T03:33:23.021Z,7.30
2023-02-19T03:35:54.053Z,7.20
2023-02-19T03:38:52.769Z,7.20
2023-02-19T03:41:45.633Z,7.20
2023-02-19T03:44:39.772Z,7.20
2023-02-19T03:47:19.980Z,7.20
2023-02-19T03:50:11.653Z,7.20
2023-02-19T03:52:43.311Z,7.20
2023-02-19T03:55:54.751Z,7.20
2023-02-19T03:58:43.653Z,7.30
2023-02-19T04:01:31.397Z,7.30
2023-02-19T04:04:23.392Z,7.30
2023-02-19T04:06:54.404Z,7.40
2023-02-19T04:09:23.028Z,7.40
2023-02-19T04:11:57.658Z,7.50
2023-02-19T04:14:38.766Z,7.50
2023-02-19T04:17:20.687Z,7.50
2023-02-19T04:19:48.493Z,7.50
2023-02-19T04:22:16.114Z,7.50
2023-02-19T04:24:48.530Z,7.60
2023-02-19T04:27:15.732Z,7.60
2023-02-19T04:29:42.853Z,7.60
2023-02-19T04:32:13.435Z,7.70
2023-02-19T04:34:40.668Z,7.70
2023-02-19T04:37:07.784Z,7.70
2023-02-19T04:39:34.924Z,7.70
2023-02-19T04:42:02.089Z,7.70
2023-02-19T04:44:29.377Z,7.70
2023-02-19T04:46:56.544Z,7.70
2023-02-19T04:49:23.757Z,7.70
2023-02-19T04:51:50.906Z,7.70
2023-02-19T04:54:18.115Z,7.70
2023-02-19T04:56:45.261Z,7.70
2023-02-19T04:59:12.652Z,7.80
2023-02-19T05:01:41.625Z,7.80
2023-02-19T05:04:08.784Z,7.80
2023-02-19T05:06:35.990Z,7.80
2023-02-19T05:09:03.308Z,7.80
2023-02-19T05:11:30.495Z,7.80
2023-02-19T05:13:57.721Z,7.80
2023-02-19T05:16:25.213Z,7.80
2023-02-19T05:18:52.360Z,7.80
2023-02-19T05:21:19.518Z,7.80
2023-02-19T05:23:46.750Z,7.80
2023-02-19T05:26:19.450Z,7.80
2023-02-19T05:28:49.056Z,7.80
2023-02-19T05:31:17.099Z,7.80
2023-02-19T05:33:45.690Z,7.80
2023-02-19T05:36:13.807Z,7.80
2023-02-19T05:38:41.310Z,7.80
2023-02-19T05:41:20.784Z,7.70
2023-02-19T05:43:48.595Z,7.80
2023-02-19T05:46:18.082Z,7.80
2023-02-19T05:48:45.842Z,7.80
2023-02-19T05:51:15.154Z,7.80
2023-02-19T05:53:42.710Z,7.80
2023-02-19T05:56:34.931Z,7.80
2023-02-19T05:59:08.915Z,7.90
2023-02-19T06:01:36.275Z,7.80
2023-02-19T06:04:03.550Z,7.80
2023-02-19T06:06:30.743Z,7.80
2023-02-19T06:08:58.000Z,7.80
2023-02-19T06:11:25.367Z,7.80
2023-02-19T06:13:52.563Z,7.80
2023-02-19T06:16:19.895Z,7.80
2023-02-19T06:18:47.233Z,7.80
2023-02-19T06:21:17.278Z,7.80
2023-02-19T06:23:44.806Z,7.80
2023-02-19T06:26:23.287Z,7.80
2023-02-19T06:28:51.655Z,7.80
2023-02-19T06:31:19.903Z,7.80
2023-02-19T06:33:50.718Z,7.80
2023-02-19T06:36:19.845Z,7.80
2023-02-19T06:38:46.940Z,7.80
2023-02-19T06:41:14.392Z,7.80
2023-02-19T06:43:41.862Z,7.70
2023-02-19T06:46:10.560Z,7.70
2023-02-19T06:48:38.426Z,7.80
2023-02-19T06:51:05.809Z,7.70
2023-02-19T06:53:32.975Z,7.70
2023-02-19T06:56:04.752Z,7.70
2023-02-19T06:58:32.401Z,7.70
2023-02-19T07:00:59.734Z,7.70
2023-02-19T07:03:26.998Z,7.70
2023-02-19T07:05:54.263Z,7.70
2023-02-19T07:08:21.434Z,7.70
2023-02-19T07:10:56.584Z,7.70
2023-02-19T07:13:24.809Z,7.70
2023-02-19T07:15:52.364Z,7.70
2023-02-19T07:18:19.643Z,7.70
2023-02-19T07:20:46.766Z,7.70
2023-02-19T07:23:13.988Z,7.70
2023-02-19T07:25:41.163Z,7.70
2023-02-19T07:28:08.336Z,7.70
2023-02-19T07:30:37.756Z,7.70
2023-02-19T07:33:04.893Z,7.70
2023-02-19T07:35:32.147Z,7.70
2023-02-19T07:37:59.400Z,7.70
2023-02-19T07:40:26.820Z,7.70
2023-02-19T07:42:57.687Z,7.70
2023-02-19T07:45:24.895Z,7.70
2023-02-19T07:47:54.670Z,7.70
2023-02-19T07:50:21.822Z,7.70
2023-02-19T07:52:51.853Z,7.70
2023-02-19T07:55:22.120Z,7.70
2023-02-19T07:57:49.258Z,7.70
2023-02-19T08:00:17.009Z,7.80
2023-02-19T08:03:03.317Z,7.70
2023-02-19T08:05:33.849Z,7.70
2023-02-19T08:08:01.149Z,7.70
2023-02-19T08:10:47.137Z,7.70
2023-02-19T08:13:28.003Z,7.70
2023-02-19T08:16:26.669Z,7.80
2023-02-19T08:19:00.642Z,7.80
2023-02-19T08:21:27.756Z,7.80
2023-02-19T08:23:54.989Z,7.80
2023-02-19T08:26:22.238Z,7.80
2023-02-19T08:28:49.361Z,7.80
2023-02-19T08:31:16.592Z,7.80
2023-02-19T08:33:43.758Z,7.90
2023-02-19T08:36:11.396Z,7.90
2023-02-19T08:38:38.630Z,7.90
2023-02-19T08:41:11.773Z,7.90
2023-02-19T08:43:41.187Z,7.80
2023-02-19T08:46:11.307Z,7.80
2023-02-19T08:48:42.145Z,7.90
2023-02-19T08:51:13.218Z,7.90
2023-02-19T08:53:44.395Z,7.90
2023-02-19T08:56:15.326Z,7.90
2023-02-19T08:58:43.477Z,8.00
2023-02-19T09:01:15.830Z,7.90
2023-02-19T09:03:43.211Z,7.90
2023-02-19T09:06:18.473Z,8.00
2023-02-19T09:08:45.635Z,8.00
2023-02-19T09:11:13.346Z,7.90
2023-02-19T09:13:40.828Z,7.90
2023-02-19T09:16:08.165Z,8.00
2023-02-19T09:18:35.743Z,8.00
2023-02-19T09:21:04.702Z,8.00
2023-02-19T09:23:36.220Z,7.90
2023-02-19T09:26:06.843Z,8.00
2023-02-19T09:28:34.179Z,8.00
2023-02-19T09:31:29.944Z,8.00
2023-02-19T09:33:57.139Z,8.10
2023-02-19T09:36:24.306Z,8.00
2023-02-19T09:38:51.564Z,8.00
2023-02-19T09:41:31.551Z,8.00
2023-02-19T09:44:03.518Z,8.10
2023-02-19T09:46:40.467Z,8.10
2023-02-19T09:49:25.130Z,8.00
2023-02-19T09:52:10.198Z,8.10
2023-02-19T09:54:37.417Z,8.10
2023-02-19T09:57:04.857Z,8.00
2023-02-19T09:59:59.853Z,8.00
2023-02-19T10:02:36.643Z,8.10
2023-02-19T10:05:10.526Z,8.00
2023-02-19T10:07:44.501Z,8.00
2023-02-19T10:10:19.399Z,8.00
2023-02-19T10:12:50.554Z,7.90
2023-02-19T10:16:01.966Z,7.80
2023-02-19T10:18:43.141Z,7.70
2023-02-19T10:21:25.126Z,7.60
2023-02-19T10:24:02.481Z,7.60
2023-02-19T10:26:59.400Z,7.50
2023-02-19T10:29:29.620Z,7.40
2023-02-19T10:32:21.651Z,7.40
2023-02-19T10:34:48.855Z,7.40
2023-02-19T10:37:17.751Z,7.30
2023-02-19T10:39:49.585Z,7.30
2023-02-19T10:42:22.003Z,7.30
2023-02-19T10:44:58.613Z,7.30
2023-02-19T10:47:26.794Z,7.30
2023-02-19T10:49:57.262Z,7.30
2023-02-19T10:52:32.759Z,7.30
2023-02-19T10:55:20.908Z,7.30
2023-02-19T10:57:50.374Z,7.30
2023-02-19T11:00:22.928Z,7.20
2023-02-19T11:02:50.482Z,7.30
2023-02-19T11:05:23.337Z,7.20
2023-02-19T11:07:55.080Z,7.20
2023-02-19T11:10:31.023Z,7.20
2023-02-19T11:13:02.900Z,7.20
2023-02-19T11:15:31.849Z,7.20
2023-02-19T11:18:14.805Z,7.20
2023-02-19T11:20:59.663Z,7.20
2023-02-19T11:23:44.136Z,7.20
2023-02-19T11:26:23.675Z,7.10
2023-02-19T11:29:12.112Z,7.10
2023-02-19T11:31:39.388Z,7.10
2023-02-19T11:34:29.213Z,7.10
2023-02-19T11:37:20.832Z,7.20
2023-02-19T11:39:49.895Z,7.20
2023-02-19T11:42:46.717Z,7.10
2023-02-19T11:45:36.038Z,7.10
2023-02-19T11:48:21.939Z,7.10
2023-02-19T11:51:10.900Z,7.10
2023-02-19T11:53:49.742Z,7.10
2023-02-19T11:56:23.992Z,7.10
2023-02-19T11:59:49.640Z,7.10
2023-02-19T12:02:27.615Z,7.10
2023-02-19T12:05:13.163Z,7.10
2023-02-19T12:07:57.548Z,7.20
2023-02-19T12:10:45.015Z,7.10
2023-02-19T12:13:28.025Z,7.10
2023-02-19T12:16:16.016Z,7.10
2023-02-19T12:19:27.216Z,7.10
2023-02-19T12:22:32.914Z,7.10
2023-02-19T12:25:34.675Z,7.10
2023-02-19T12:28:26.385Z,7.00
2023-02-19T12:31:06.610Z,7.10
2023-02-19T12:34:04.316Z,7.00
2023-02-19T12:37:23.536Z,7.00
2023-02-19T12:40:19.672Z,7.00
2023-02-19T12:43:14.851Z,6.90
2023-02-19T12:46:00.383Z,6.80
2023-02-19T12:49:00.192Z,6.80
2023-02-19T12:51:55.577Z,6.80
2023-02-19T12:54:30.213Z,6.80
2023-02-19T12:57:06.843Z,6.80
2023-02-19T12:59:44.455Z,6.80
2023-02-19T13:02:44.683Z,6.70
2023-02-19T13:06:01.557Z,6.70
2023-02-19T13:09:06.040Z,6.60
2023-02-19T13:11:50.987Z,6.40
2023-02-19T13:14:21.171Z,6.10
2023-02-19T13:16:52.710Z,5.90
2023-02-19T13:19:19.924Z,5.80
2023-02-19T13:22:09.789Z,5.70
2023-02-19T13:24:42.585Z,5.70
2023-02-19T13:27:42.410Z,5.70
2023-02-19T13:30:30.297Z,5.70
2023-02-19T13:33:25.195Z,5.60
2023-02-19T13:36:16.414Z,5.60
2023-02-19T13:38:47.537Z,5.50
2023-02-19T13:41:42.339Z,5.50
2023-02-19T13:44:38.072Z,5.40
2023-02-19T13:47:09.887Z,5.50
2023-02-19T13:49:43.227Z,5.30
2023-02-19T13:52:30.606Z,5.20
2023-02-19T13:55:47.252Z,5.20
2023-02-19T13:58:38.993Z,5.20
2023-02-19T14:01:11.655Z,5.20
2023-02-19T14:04:13.952Z,5.10
2023-02-19T14:07:05.915Z,5.10
2023-02-19T14:09:44.910Z,5.10
2023-02-19T14:12:16.046Z,5.10
2023-02-19T14:14:47.958Z,5.10
2023-02-19T14:17:45.693Z,5.10
2023-02-19T14:20:15.811Z,5.10
2023-02-19T14:22:57.857Z,5.00
2023-02-19T14:25:30.874Z,5.00
2023-02-19T14:28:44.322Z,4.90
2023-02-19T14:31:37.226Z,5.00
2023-02-19T14:34:26.548Z,5.00
2023-02-19T14:37:01.263Z,5.00
2023-02-19T14:39:37.822Z,4.90
2023-02-19T14:42:27.128Z,4.90
2023-02-19T14:44:57.913Z,4.90
2023-02-19T14:47:26.017Z,4.90
2023-02-19T14:50:01.237Z,4.90
2023-02-19T14:52:36.672Z,4.90
2023-02-19T14:55:25.132Z,4.90
2023-02-19T14:57:53.869Z,5.00
2023-02-19T15:00:40.844Z,5.00
2023-02-19T15:03:35.662Z,5.10
2023-02-19T15:06:13.103Z,5.10
2023-02-19T15:08:46.852Z,5.00
2023-02-19T15:11:25.125Z,5.10
2023-02-19T15:13:57.473Z,5.10
2023-02-19T15:16:25.911Z,5.00
2023-02-19T15:18:53.104Z,5.00
2023-02-19T15:21:32.564Z,5.00
2023-02-19T15:24:04.227Z,5.10
2023-02-19T15:26:40.676Z,5.10
2023-02-19T15:29:15.301Z,5.10
2023-02-19T15:32:01.147Z,5.20
2023-02-19T15:34:31.385Z,5.20
2023-02-19T15:37:10.515Z,5.20
2023-02-19T15:39:44.186Z,5.20
2023-02-19T15:42:28.898Z,5.20
2023-02-19T15:45:17.751Z,5.10
2023-02-19T15:48:18.591Z,5.00
2023-02-19T15:50:55.054Z,4.90
2023-02-19T15:53:24.606Z,5.00
2023-02-19T15:56:04.677Z,5.00
2023-02-19T15:59:11.568Z,5.10
2023-02-19T16:01:39.412Z,5.10
2023-02-19T16:04:15.288Z,5.00
2023-02-19T16:06:55.797Z,5.10
2023-02-19T16:09:39.093Z,5.00
2023-02-19T16:12:24.046Z,5.00
2023-02-19T16:14:51.411Z,5.00
2023-02-19T16:17:22.080Z,4.90
2023-02-19T16:19:57.414Z,5.00
2023-02-19T16:22:29.713Z,5.00
2023-02-19T16:25:05.043Z,5.00
2023-02-19T16:27:44.336Z,5.00
2023-02-19T16:30:17.725Z,4.90
2023-02-19T16:32:46.865Z,4.70
2023-02-19T16:35:36.944Z,4.60
2023-02-19T16:38:14.592Z,4.60
2023-02-19T16:40:51.095Z,4.50
2023-02-19T16:43:33.449Z,4.50
2023-02-19T16:46:00.752Z,4.50
2023-02-19T16:48:28.627Z,4.50
2023-02-19T16:50:59.566Z,4.50
2023-02-19T16:53:26.779Z,4.50
2023-02-19T16:56:16.482Z,4.40
2023-02-19T17:03:19.813Z,4.40
2023-02-19T17:07:14.362Z,4.20
2023-02-19T17:09:49.226Z,4.20
2023-02-19T17:12:57.191Z,4.10
2023-02-19T17:15:35.056Z,4.10
2023-02-19T17:18:37.086Z,4.10
2023-02-19T17:21:40.878Z,4.10
2023-02-19T17:24:20.421Z,4.10
2023-02-19T17:26:47.535Z,4.10
2023-02-19T17:33:08.490Z,4.10
2023-02-19T17:35:49.518Z,4.00
2023-02-19T17:39:09.273Z,4.00
2023-02-19T17:41:36.410Z,4.10
2023-02-19T17:44:03.639Z,4.00
2023-02-19T17:46:33.995Z,4.00
2023-02-19T17:49:04.331Z,4.00
2023-02-19T17:51:31.452Z,4.10
2023-02-19T17:54:00.995Z,4.10
2023-02-19T17:56:32.869Z,4.10
2023-02-19T17:59:00.210Z,4.20
2023-02-19T18:01:30.574Z,4.20
2023-02-19T18:03:57.789Z,4.20
2023-02-19T18:06:24.939Z,4.20
2023-02-19T18:09:01.484Z,4.30
2023-02-19T18:11:28.886Z,4.30
2023-02-19T18:13:56.280Z,4.30
2023-02-19T18:16:25.848Z,4.30
2023-02-19T18:18:53.154Z,4.30
2023-02-19T18:21:23.324Z,4.40
2023-02-19T18:23:51.250Z,4.30
2023-02-19T18:26:19.257Z,4.40
2023-02-19T18:28:46.445Z,4.30
2023-02-19T18:31:13.948Z,4.30
2023-02-19T18:33:41.379Z,4.40
2023-02-19T18:36:11.580Z,4.40
2023-02-19T18:38:40.444Z,4.30
2023-02-19T18:41:12.914Z,4.30
2023-02-19T18:43:43.464Z,4.40
2023-02-19T18:46:10.843Z,4.30
2023-02-19T18:48:38.393Z,4.30
2023-02-19T18:51:08.837Z,4.40
2023-02-19T18:53:36.259Z,4.30
2023-02-19T18:56:06.877Z,4.30
2023-02-19T18:58:34.072Z,4.30
2023-02-19T19:01:01.283Z,4.30
2023-02-19T19:03:31.072Z,4.30
2023-02-19T19:05:58.580Z,4.30
2023-02-19T19:08:25.921Z,4.30
2023-02-19T19:10:55.533Z,4.30
2023-02-19T19:13:22.728Z,4.30
2023-02-19T19:15:53.626Z,4.20
2023-02-19T19:18:21.963Z,4.20
2023-02-19T19:20:49.074Z,4.20
2023-02-19T19:23:16.235Z,4.10
2023-02-19T19:25:47.112Z,4.10
2023-02-19T19:28:32.498Z,4.10
2023-02-19T19:30:59.992Z,4.10
2023-02-19T19:33:28.170Z,4.00
2023-02-19T19:35:55.378Z,4.00
2023-02-19T19:38:22.622Z,4.10
2023-02-19T19:40:52.454Z,4.10
2023-02-19T19:43:19.670Z,4.00
2023-02-19T19:45:46.880Z,4.10
2023-02-19T19:48:14.089Z,4.10
2023-02-19T19:50:44.382Z,4.10
2023-02-19T19:53:11.547Z,4.10
2023-02-19T19:55:41.095Z,4.10
2023-02-19T19:58:08.375Z,4.10
2023-02-19T20:00:35.517Z,4.10
2023-02-19T20:03:03.127Z,4.00
2023-02-19T20:05:31.327Z,4.00
2023-02-19T20:07:58.567Z,4.00
2023-02-19T20:10:25.779Z,4.00
2023-02-19T20:12:52.956Z,4.00
2023-02-19T20:15:22.097Z,4.00
2023-02-19T20:17:49.835Z,3.90
2023-02-19T20:20:18.246Z,3.90
2023-02-19T20:22:45.407Z,3.90
2023-02-19T20:25:12.578Z,3.90
2023-02-19T20:27:39.780Z,3.90
2023-02-19T20:30:09.797Z,3.90
2023-02-19T20:32:38.361Z,3.90
2023-02-19T20:35:32.474Z,3.90
2023-02-19T20:38:54.086Z,3.90
2023-02-19T20:41:40.327Z,3.90
2023-02-19T20:44:29.218Z,3.90
2023-02-19T20:47:02.720Z,3.90
2023-02-19T20:49:30.860Z,4.00
2023-02-19T20:52:24.482Z,4.00
2023-02-19T20:55:00.295Z,4.10
2023-02-19T20:57:27.688Z,4.10
2023-02-19T20:59:54.782Z,4.10
2023-02-19T21:02:31.184Z,4.10
2023-02-19T21:05:05.269Z,4.10
2023-02-19T21:07:32.704Z,4.10
2023-02-19T21:10:43.705Z,4.00
2023-02-19T21:12:57.402Z,4.00
2023-02-19T21:15:28.648Z,4.00
2023-02-19T21:18:44.599Z,4.10
2023-02-19T21:21:25.110Z,4.10
2023-02-19T21:24:07.803Z,4.00
2023-02-19T21:27:47.926Z,4.10
2023-02-19T21:30:44.640Z,4.10
2023-02-19T21:33:41.982Z,4.00
2023-02-19T21:36:11.541Z,4.00
2023-02-19T21:39:03.470Z,4.10
2023-02-19T21:41:42.106Z,4.10
2023-02-19T21:44:09.261Z,4.10
2023-02-19T21:49:50.715Z,4.10
2023-02-19T21:52:27.213Z,4.10
2023-02-19T21:55:09.386Z,4.10
2023-02-19T21:58:25.156Z,4.10
2023-02-19T22:00:42.158Z,4.10
2023-02-19T22:03:51.932Z,4.10
2023-02-19T22:06:19.605Z,4.20
2023-02-19T22:08:48.804Z,4.10
2023-02-19T22:11:57.096Z,4.10
2023-02-19T22:14:33.288Z,4.20
2023-02-19T22:17:09.197Z,4.10
2023-02-19T22:19:54.195Z,4.20
2023-02-19T22:22:28.720Z,4.20
2023-02-19T22:24:55.890Z,4.20
2023-02-19T22:27:50.660Z,4.10
2023-02-19T22:30:18.112Z,4.20
2023-02-19T22:32:45.301Z,4.10
2023-02-19T22:35:19.783Z,4.10
2023-02-19T22:38:22.526Z,4.10
2023-02-19T22:40:56.745Z,4.10
2023-02-19T22:43:31.042Z,4.00
2023-02-19T22:45:58.242Z,4.00
2023-02-19T22:48:30.217Z,4.00
2023-02-19T22:50:58.972Z,4.00
2023-02-19T22:53:26.150Z,3.90
2023-02-19T22:55:53.272Z,4.00
2023-02-19T22:58:20.430Z,3.90
2023-02-19T23:00:47.548Z,3.90
2023-02-19T23:03:16.071Z,4.00
2023-02-19T23:05:43.228Z,3.90
2023-02-19T23:08:10.339Z,3.90
2023-02-19T23:10:37.574Z,3.90
2023-02-19T23:13:04.916Z,3.90
2023-02-19T23:15:32.163Z,4.00
2023-02-19T23:17:59.965Z,4.00
2023-02-19T23:20:27.102Z,4.00
2023-02-19T23:22:54.200Z,4.00
2023-02-19T23:25:21.355Z,4.00
2023-02-19T23:27:48.502Z,4.00
2023-02-19T23:30:17.099Z,4.00
2023-02-19T23:32:44.353Z,4.00
2023-02-19T23:35:11.522Z,4.00
2023-02-19T23:37:38.653Z,3.90
2023-02-19T23:40:06.649Z,3.90
2023-02-19T23:42:33.850Z,3.90
2023-02-19T23:45:00.974Z,3.90
2023-02-19T23:47:30.592Z,3.90
2023-02-19T23:49:57.890Z,3.90
2023-02-19T23:52:25.005Z,3.90
2023-02-19T23:54:52.148Z,3.90
2023-02-19T23:57:19.276Z,3.90
2023-02-19T23:59:49.087Z,3.90
